createdAt,value
2023-04-02T00:03:11.698Z,63.06
2023-04-02T00:08:33.366Z,63.19
2023-04-02T00:14:04.389Z,63.48
2023-04-02T00:19:20.804Z,63.03
2023-04-02T00:24:25.901Z,63.31
2023-04-02T00:29:31.238Z,64.13
2023-04-02T00:34:38.978Z,63.85
2023-04-02T00:39:44.110Z,64.05
2023-04-02T00:44:50.507Z,64.59
2023-04-02T00:50:06.981Z,65.19
2023-04-02T00:55:24.472Z,63.93
2023-04-02T01:00:37.226Z,64.62
2023-04-02T01:05:45.546Z,64.37
2023-04-02T01:10:53.844Z,63.94
2023-04-02T01:16:33.686Z,65.17
2023-04-02T01:21:53.515Z,64.49
2023-04-02T01:27:34.747Z,64.66
2023-04-02T01:32:41.652Z,63.99
2023-04-02T01:38:19.847Z,63.85
2023-04-02T01:43:38.922Z,63.37
2023-04-02T01:48:44.414Z,63.95
2023-04-02T01:53:50.093Z,64.45
2023-04-02T01:58:57.440Z,63.34
2023-04-02T02:04:05.012Z,63.04
2023-04-02T02:09:26.545Z,62.48
2023-04-02T02:14:33.492Z,63.02
2023-04-02T02:19:48.630Z,64.11
2023-04-02T02:24:55.983Z,64.95
2023-04-02T02:30:24.623Z,64.39
2023-04-02T02:35:35.703Z,62.82
2023-04-02T02:40:51.304Z,62.87
2023-04-02T02:45:58.374Z,62.76
2023-04-02T02:51:13.299Z,63.70
2023-04-02T02:56:24.916Z,63.97
2023-04-02T03:01:32.904Z,63.84
2023-04-02T03:06:43.586Z,62.67
2023-04-02T03:12:26.907Z,61.74
2023-04-02T03:17:52.735Z,60.89
2023-04-02T03:23:15.624Z,60.31
2023-04-02T03:28:30.300Z,60.76
2023-04-02T03:33:43.122Z,60.44
2023-04-02T03:38:59.413Z,60.81
2023-04-02T03:44:22.629Z,61.81
2023-04-02T03:49:48.602Z,61.64
2023-04-02T03:54:59.933Z,61.61
2023-04-02T04:00:17.416Z,61.70
2023-04-02T04:05:39.644Z,61.32
2023-04-02T04:10:46.284Z,61.43
2023-04-02T04:16:22.391Z,62.77
2023-04-02T04:21:31.704Z,63.02
2023-04-02T04:26:57.917Z,64.30
2023-04-02T04:32:35.296Z,63.16
2023-04-02T04:37:59.513Z,62.62
2023-04-02T04:43:14.262Z,61.41
2023-04-02T04:48:48.822Z,61.27
2023-04-02T04:53:56.406Z,61.75
2023-04-02T04:59:27.922Z,59.46
2023-04-02T05:04:38.847Z,61.07
2023-04-02T05:10:06.587Z,60.68
2023-04-02T05:15:30.048Z,62.43
2023-04-02T05:20:55.413Z,61.67
2023-04-02T05:26:31.941Z,60.58
2023-04-02T05:31:53.148Z,60.87
2023-04-02T05:37:06.967Z,61.85
2023-04-02T05:42:25.226Z,60.81
2023-04-02T05:47:44.897Z,60.92
2023-04-02T05:53:17.310Z,60.39
2023-04-02T05:58:53.276Z,58.63
2023-04-02T06:04:20.280Z,57.59
2023-04-02T06:09:44.606Z,56.72
2023-04-02T06:14:50.516Z,56.26
2023-04-02T06:19:59.506Z,55.12
2023-04-02T06:25:22.709Z,54.69
2023-04-02T06:30:36.308Z,54.67
2023-04-02T06:35:47.284Z,54.11
2023-04-02T06:41:07.745Z,53.59
2023-04-02T06:46:43.015Z,54.36
2023-04-02T06:51:54.171Z,52.15
2023-04-02T06:57:02.153Z,50.79
2023-04-02T07:02:27.820Z,50.41
2023-04-02T07:07:35.078Z,50.02
2023-04-02T07:12:43.193Z,48.59
2023-04-02T07:17:49.735Z,48.61
2023-04-02T07:22:57.680Z,47.71
2023-04-02T07:28:02.983Z,47.47
2023-04-02T07:33:14.076Z,47.77
2023-04-02T07:38:19.826Z,47.64
2023-04-02T07:43:25.328Z,46.95
2023-04-02T07:48:33.452Z,46.86
2023-04-02T07:53:40.373Z,47.00
2023-04-02T07:58:47.478Z,45.50
2023-04-02T08:03:56.257Z,45.42
2023-04-02T08:09:04.209Z,44.25
2023-04-02T08:14:10.605Z,45.87
2023-04-02T08:19:16.984Z,44.32
2023-04-02T08:24:22.584Z,44.40
2023-04-02T08:29:35.245Z,44.32
2023-04-02T08:34:43.041Z,43.54
2023-04-02T08:39:48.517Z,42.56
2023-04-02T08:45:23.638Z,43.79
2023-04-02T08:50:38.335Z,43.14
2023-04-02T08:56:20.044Z,43.50
2023-04-02T09:01:36.440Z,42.74
2023-04-02T09:06:44.617Z,44.31
2023-04-02T09:12:04.656Z,43.42
2023-04-02T09:22:35.664Z,43.09
2023-04-02T09:27:41.278Z,42.62
2023-04-02T09:32:57.551Z,43.37
2023-04-02T09:38:21.060Z,43.40
2023-04-02T09:43:37.918Z,44.11
2023-04-02T09:48:53.782Z,43.05
2023-04-02T09:54:04.199Z,43.83
2023-04-02T09:59:23.747Z,43.51
2023-04-02T10:04:47.440Z,43.49
2023-04-02T10:10:00.582Z,44.07
2023-04-02T10:15:18.929Z,44.18
2023-04-02T10:20:30.567Z,44.04
2023-04-02T10:25:50.067Z,44.13
2023-04-02T10:30:55.701Z,44.37
2023-04-02T10:36:39.807Z,44.30
2023-04-02T10:41:49.717Z,44.50
2023-04-02T10:47:43.116Z,44.55
2023-04-02T10:53:13.097Z,44.47
2023-04-02T10:58:27.929Z,44.95
2023-04-02T11:03:42.358Z,45.18
2023-04-02T11:08:52.993Z,45.23
2023-04-02T11:14:20.066Z,45.22
2023-04-02T11:19:32.529Z,45.76
2023-04-02T11:24:45.471Z,45.17
2023-04-02T11:29:53.732Z,45.73
2023-04-02T11:35:07.163Z,45.34
2023-04-02T11:40:18.670Z,45.82
2023-04-02T11:45:24.102Z,45.13
2023-04-02T11:50:32.427Z,45.13
2023-04-02T11:55:47.052Z,45.99
2023-04-02T12:01:31.536Z,45.64
2023-04-02T12:06:43.133Z,45.03
2023-04-02T12:11:52.464Z,44.96
2023-04-02T12:17:01.913Z,45.65
2023-04-02T12:22:17.723Z,45.41
2023-04-02T12:27:28.669Z,45.85
2023-04-02T12:32:34.136Z,45.56
2023-04-02T12:37:39.542Z,45.33
2023-04-02T12:42:46.299Z,44.77
2023-04-02T12:47:53.855Z,45.43
2023-04-02T12:53:01.576Z,45.54
2023-04-02T12:58:34.383Z,45.50
2023-04-02T13:03:42.568Z,45.28
2023-04-02T13:08:51.863Z,44.80
2023-04-02T13:14:04.861Z,44.35
2023-04-02T13:19:29.420Z,45.08
2023-04-02T13:24:35.876Z,45.45
2023-04-02T13:29:42.040Z,45.02
2023-04-02T13:34:47.679Z,45.71
2023-04-02T13:39:53.469Z,46.04
2023-04-02T13:45:01.893Z,45.95
2023-04-02T13:50:09.348Z,46.60
2023-04-02T13:55:18.461Z,46.13
2023-04-02T14:00:51.815Z,46.57
2023-04-02T14:06:21.213Z,47.08
2023-04-02T14:12:01.653Z,47.55
2023-04-02T14:17:26.694Z,47.49
2023-04-02T14:23:09.450Z,47.80
2023-04-02T14:28:48.131Z,48.02
2023-04-02T14:34:19.893Z,48.24
2023-04-02T14:40:02.907Z,48.45
2023-04-02T14:45:30.544Z,48.84
2023-04-02T14:50:45.341Z,49.11
2023-04-02T14:55:52.877Z,49.37
2023-04-02T15:01:29.491Z,49.69
2023-04-02T15:06:46.697Z,50.18
2023-04-02T15:11:58.134Z,50.47
2023-04-02T15:17:04.794Z,50.77
2023-04-02T15:22:42.796Z,51.35
2023-04-02T15:28:23.485Z,52.35
2023-04-02T15:34:08.294Z,52.65
2023-04-02T15:39:22.087Z,53.14
2023-04-02T15:44:27.858Z,53.89
2023-04-02T15:49:44.611Z,54.09
2023-04-02T15:55:21.477Z,54.47
2023-04-02T16:00:53.382Z,54.34
2023-04-02T16:06:20.726Z,54.59
2023-04-02T16:11:29.927Z,54.96
2023-04-02T16:16:41.119Z,55.31
2023-04-02T16:22:19.788Z,55.61
2023-04-02T16:27:43.770Z,55.41
2023-04-02T16:33:09.895Z,55.15
2023-04-02T16:38:58.954Z,55.36
2023-04-02T16:44:46.355Z,55.47
2023-04-02T16:49:53.681Z,55.54
2023-04-02T16:55:24.162Z,55.50
2023-04-02T17:00:52.889Z,55.11
2023-04-02T17:06:20.507Z,55.32
2023-04-02T17:11:59.100Z,55.53
2023-04-02T17:17:06.097Z,55.46
2023-04-02T17:22:21.053Z,55.62
2023-04-02T17:27:36.126Z,55.57
2023-04-02T17:32:43.453Z,55.71
2023-04-02T17:37:53.840Z,55.72
2023-04-02T17:43:38.737Z,55.11
2023-04-02T17:48:55.936Z,55.65
2023-04-02T17:54:27.422Z,55.86
2023-04-02T18:00:10.403Z,55.65
2023-04-02T18:05:42.656Z,55.28
2023-04-02T18:11:11.469Z,55.23
2023-04-02T18:16:45.010Z,55.41
2023-04-02T18:22:15.973Z,55.69
2023-04-02T18:27:54.928Z,54.81
2023-04-02T18:33:34.961Z,55.61
2023-04-02T18:39:07.692Z,55.14
2023-04-02T18:44:26.841Z,55.57
2023-04-02T18:49:54.525Z,55.57
2023-04-02T18:55:20.808Z,55.99
2023-04-02T19:00:38.767Z,55.81
2023-04-02T19:06:03.960Z,56.43
2023-04-02T19:11:22.915Z,56.22
2023-04-02T19:17:05.821Z,56.29
2023-04-02T19:22:49.661Z,57.41
2023-04-02T19:28:20.542Z,56.79
2023-04-02T19:34:09.732Z,57.99
2023-04-02T19:39:51.558Z,57.95
2023-04-02T19:44:57.631Z,56.93
2023-04-02T19:50:04.389Z,58.23
2023-04-02T19:55:11.257Z,57.59
2023-04-02T20:00:18.671Z,58.92
2023-04-02T20:05:26.819Z,59.65
2023-04-02T20:10:32.326Z,60.04
2023-04-02T20:15:37.964Z,59.72
2023-04-02T20:20:46.772Z,59.97
2023-04-02T20:25:57.372Z,59.60
2023-04-02T20:31:12.199Z,59.77
2023-04-02T20:36:20.313Z,59.68
2023-04-02T20:41:25.715Z,60.30
2023-04-02T20:46:32.312Z,59.80
2023-04-02T20:51:38.014Z,59.05
2023-04-02T20:56:43.767Z,58.70
2023-04-02T21:01:49.236Z,59.59
2023-04-02T21:07:00.528Z,60.23
2023-04-02T21:12:05.950Z,60.48
2023-04-02T21:17:12.734Z,60.57
2023-04-02T21:22:18.143Z,60.15
2023-04-02T21:27:29.473Z,60.97
2023-04-02T21:32:34.788Z,59.58
2023-04-02T21:37:40.410Z,59.66
2023-04-02T21:42:46.047Z,59.31
2023-04-02T21:47:51.638Z,58.96
2023-04-02T21:52:56.987Z,59.98
2023-04-02T21:58:02.475Z,60.20
2023-04-02T22:03:10.000Z,60.99
2023-04-02T22:08:15.586Z,60.97
2023-04-02T22:13:21.295Z,61.91
2023-04-02T22:18:26.598Z,61.70
2023-04-02T22:23:32.140Z,62.00
2023-04-02T22:28:38.375Z,62.46
2023-04-02T22:33:44.978Z,63.67
2023-04-02T22:38:51.066Z,63.15
2023-04-02T22:43:57.537Z,64.19
2023-04-02T22:49:03.045Z,63.71
2023-04-02T22:54:08.499Z,64.31
2023-04-02T22:59:14.287Z,64.87
2023-04-02T23:04:19.756Z,65.30
2023-04-02T23:09:25.118Z,65.98
2023-04-02T23:14:30.578Z,65.73
2023-04-02T23:19:36.029Z,65.29
2023-04-02T23:24:41.523Z,66.26
2023-04-02T23:29:47.349Z,66.47
2023-04-02T23:34:52.723Z,66.08
2023-04-02T23:39:58.236Z,66.31
2023-04-02T23:45:03.613Z,66.87
2023-04-02T23:50:09.620Z,66.39
2023-04-02T23:55:14.989Z,66.27
